3 – eServices

Baggage tracing
Cargo tracing
Weather
  • METAR

    EFMA 261150Z AUTO 29004KT 240V320 9999 BKN001 05/05 Q1008

    EFTU 261150Z AUTO 30004KT 250V350 CAVOK 06/02 Q1006

    EFHK 261150Z 27006KT 9999 SCT012 06/05 Q1005 NOSIG

    ESSA 261150Z 32007KT 300V360 9999 BKN006 06/05 Q1008 R01R/29//95 R08/29//95 BECMG BKN015

    ESSB 261150Z 28005KT 9999 SCT008 BKN016 07/07 Q1008 R12/29//62

  • TAF n/a

Flightradar24